PWSweather.com
Personal Weather Stations
Station Observations
KOHAVON11
Long Road Station, Avon, OH 44011

Long Road StationAvon, OH 44011

Lat: 41.437, Lon: -82.0477

Elevation: 686

Station Type: Davis Vantage Pro2

http://www.avon-weather.com

High Low Average
Temperature 76.3°F24.6°C 50.7°F10.4°C 61.3°F16.3°C
Dew Point 67.1°F19.5°C 47.6°F8.7°C 56.5°F13.6°C
Winds 9.0 mph 14.5 kmh Calm Calm Calm SSWCalm SSW
Wind Gusts 17.0 mph27.4 kmh -- 2.0 mph3.2 kmh
Humidity 90% 64% 85%
Pressure 30.08 in1018.6 mb 29.82 in1009.8 mb -
Precipitation 0.60 in15.2 mm - -
Hour Temp Dew Point Humidity Winds Wind Gusts Pressure Precip Precip Rate Daily Precip Total
12:04 AM 51.8°F11.0°C 48.3°F9.1°C 88% Calm Calm -- 29.97 in1014.9 mb 0.00 in0.0 mm 0.00 in0.0 mm 0.00 in0.0 mm
12:09 AM 51.8°F11.0°C 48.3°F9.1°C 88% Calm Calm -- 29.97 in1014.9 mb 0.00 in0.0 mm 0.00 in0.0 mm 0.00 in0.0 mm
12:14 AM 52.0°F11.1°C 48.5°F9.2°C 88% Calm Calm -- 29.96 in1014.6 mb 0.00 in0.0 mm 0.00 in0.0 mm 0.00 in0.0 mm
12:19 AM 52.1°F11.2°C 48.9°F9.4°C 89% Calm Calm -- 29.96 in1014.6 mb 0.00 in0.0 mm 0.00 in0.0 mm 0.00 in0.0 mm
12:24 AM 52.3°F11.3°C 48.8°F9.3°C 88% Calm Calm -- 29.95 in1014.2 mb 0.00 in0.0 mm 0.00 in0.0 mm 0.00 in0.0 mm
12:29 AM 52.3°F11.3°C 48.8°F9.3°C 88% Calm Calm -- 29.96 in1014.6 mb 0.00 in0.0 mm 0.00 in0.0 mm 0.00 in0.0 mm
12:34 AM 52.4°F11.3°C 49.2°F9.6°C 89% Calm Calm -- 29.96 in1014.6 mb 0.00 in0.0 mm 0.00 in0.0 mm 0.00 in0.0 mm
12:39 AM 52.4°F11.3°C 49.2°F9.6°C 89% Calm Calm -- 29.96 in1014.6 mb 0.00 in0.0 mm 0.00 in0.0 mm 0.00 in0.0 mm
12:44 AM 52.4°F11.3°C 49.2°F9.6°C 89% Calm Calm -- 29.96 in1014.6 mb 0.00 in0.0 mm 0.00 in0.0 mm 0.00 in0.0 mm
12:49 AM 52.4°F11.3°C 49.2°F9.6°C 89% Calm Calm -- 29.97 in1014.9 mb 0.00 in0.0 mm 0.00 in0.0 mm 0.00 in0.0 mm
12:54 AM 52.4°F11.3°C 49.2°F9.6°C 89% Calm Calm -- 29.97 in1014.9 mb 0.00 in0.0 mm 0.00 in0.0 mm 0.00 in0.0 mm
12:59 AM 52.5°F11.4°C 49.3°F9.6°C 89% Calm Calm -- 29.97 in1014.9 mb 0.00 in0.0 mm 0.00 in0.0 mm 0.00 in0.0 mm
01:04 AM 52.5°F11.4°C 49.3°F9.6°C 89% Calm Calm -- 29.97 in1014.9 mb 0.00 in0.0 mm 0.00 in0.0 mm 0.00 in0.0 mm
01:09 AM 52.6°F11.4°C 49.4°F9.7°C 89% Calm Calm 1.0 mph1.6 kmh 29.97 in1014.9 mb 0.00 in0.0 mm 0.00 in0.0 mm 0.00 in0.0 mm
01:14 AM 52.7°F11.5°C 49.5°F9.7°C 89% Calm Calm -- 29.97 in1014.9 mb 0.00 in0.0 mm 0.00 in0.0 mm 0.00 in0.0 mm
01:19 AM 52.7°F11.5°C 49.5°F9.7°C 89% Calm Calm -- 29.97 in1014.9 mb 0.00 in0.0 mm 0.00 in0.0 mm 0.00 in0.0 mm
01:24 AM 52.7°F11.5°C 49.5°F9.7°C 89% Calm Calm -- 29.97 in1014.9 mb 0.00 in0.0 mm 0.00 in0.0 mm 0.00 in0.0 mm
01:29 AM 52.7°F11.5°C 49.5°F9.7°C 89% Calm Calm -- 29.97 in1014.9 mb 0.00 in0.0 mm 0.00 in0.0 mm 0.00 in0.0 mm
01:34 AM 52.6°F11.4°C 49.4°F9.7°C 89% Calm Calm -- 29.96 in1014.6 mb 0.00 in0.0 mm 0.00 in0.0 mm 0.00 in0.0 mm
01:39 AM 52.6°F11.4°C 49.4°F9.7°C 89% Calm Calm -- 29.96 in1014.6 mb 0.00 in0.0 mm 0.00 in0.0 mm 0.00 in0.0 mm
01:44 AM 52.6°F11.4°C 49.4°F9.7°C 89% Calm Calm -- 29.96 in1014.6 mb 0.00 in0.0 mm 0.00 in0.0 mm 0.00 in0.0 mm
01:49 AM 52.6°F11.4°C 49.4°F9.7°C 89% Calm Calm -- 29.96 in1014.6 mb 0.00 in0.0 mm 0.00 in0.0 mm 0.00 in0.0 mm
01:54 AM 52.5°F11.4°C 49.3°F9.6°C 89% Calm Calm -- 29.96 in1014.6 mb 0.00 in0.0 mm 0.00 in0.0 mm 0.00 in0.0 mm
01:59 AM 52.5°F11.4°C 49.3°F9.6°C 89% Calm Calm -- 29.96 in1014.6 mb 0.00 in0.0 mm 0.00 in0.0 mm 0.00 in0.0 mm
02:04 AM 52.5°F11.4°C 49.3°F9.6°C 89% Calm Calm -- 29.96 in1014.6 mb 0.00 in0.0 mm 0.00 in0.0 mm 0.00 in0.0 mm
02:09 AM 52.5°F11.4°C 49.3°F9.6°C 89% Calm Calm -- 29.96 in1014.6 mb 0.00 in0.0 mm 0.00 in0.0 mm 0.00 in0.0 mm
02:14 AM 52.5°F11.4°C 49.3°F9.6°C 89% Calm Calm -- 29.96 in1014.6 mb 0.00 in0.0 mm 0.00 in0.0 mm 0.00 in0.0 mm
02:19 AM 52.4°F11.3°C 49.2°F9.6°C 89% Calm Calm -- 29.96 in1014.6 mb 0.00 in0.0 mm 0.00 in0.0 mm 0.00 in0.0 mm
02:24 AM 52.2°F11.2°C 49.0°F9.4°C 89% Calm Calm -- 29.96 in1014.6 mb 0.00 in0.0 mm 0.00 in0.0 mm 0.00 in0.0 mm
02:29 AM 52.2°F11.2°C 49.0°F9.4°C 89% Calm Calm -- 29.96 in1014.6 mb 0.00 in0.0 mm 0.00 in0.0 mm 0.00 in0.0 mm
02:34 AM 52.1°F11.2°C 48.9°F9.4°C 89% Calm Calm -- 29.97 in1014.9 mb 0.00 in0.0 mm 0.00 in0.0 mm 0.00 in0.0 mm
02:39 AM 52.1°F11.2°C 48.9°F9.4°C 89% Calm Calm -- 29.97 in1014.9 mb 0.00 in0.0 mm 0.00 in0.0 mm 0.00 in0.0 mm
02:44 AM 52.0°F11.1°C 48.8°F9.3°C 89% Calm Calm -- 29.96 in1014.6 mb 0.00 in0.0 mm 0.00 in0.0 mm 0.00 in0.0 mm
02:49 AM 52.0°F11.1°C 48.8°F9.3°C 89% Calm Calm -- 29.97 in1014.9 mb 0.00 in0.0 mm 0.00 in0.0 mm 0.00 in0.0 mm
02:54 AM 51.9°F11.1°C 48.7°F9.3°C 89% Calm Calm -- 29.97 in1014.9 mb 0.00 in0.0 mm 0.00 in0.0 mm 0.00 in0.0 mm
02:59 AM 51.9°F11.1°C 48.7°F9.3°C 89% Calm Calm -- 29.97 in1014.9 mb 0.00 in0.0 mm 0.00 in0.0 mm 0.00 in0.0 mm
03:04 AM 51.9°F11.1°C 48.7°F9.3°C 89% Calm Calm -- 29.96 in1014.6 mb 0.00 in0.0 mm 0.00 in0.0 mm 0.00 in0.0 mm
03:09 AM 51.9°F11.1°C 48.7°F9.3°C 89% Calm Calm -- 29.97 in1014.9 mb 0.00 in0.0 mm 0.00 in0.0 mm 0.00 in0.0 mm
03:14 AM 51.8°F11.0°C 48.6°F9.2°C 89% Calm Calm -- 29.97 in1014.9 mb 0.00 in0.0 mm 0.00 in0.0 mm 0.00 in0.0 mm
03:19 AM 51.7°F10.9°C 48.5°F9.2°C 89% Calm Calm -- 29.97 in1014.9 mb 0.00 in0.0 mm 0.00 in0.0 mm 0.00 in0.0 mm
03:24 AM 51.6°F10.9°C 48.4°F9.1°C 89% Calm Calm -- 29.97 in1014.9 mb 0.00 in0.0 mm 0.00 in0.0 mm 0.00 in0.0 mm
03:29 AM 51.6°F10.9°C 48.4°F9.1°C 89% Calm Calm -- 29.97 in1014.9 mb 0.00 in0.0 mm 0.00 in0.0 mm 0.00 in0.0 mm
03:34 AM 51.6°F10.9°C 48.4°F9.1°C 89% Calm Calm -- 29.97 in1014.9 mb 0.00 in0.0 mm 0.00 in0.0 mm 0.00 in0.0 mm
03:39 AM 51.6°F10.9°C 48.4°F9.1°C 89% Calm Calm -- 29.97 in1014.9 mb 0.00 in0.0 mm 0.00 in0.0 mm 0.00 in0.0 mm
03:44 AM 51.7°F10.9°C 48.5°F9.2°C 89% Calm Calm -- 29.97 in1014.9 mb 0.00 in0.0 mm 0.00 in0.0 mm 0.00 in0.0 mm
03:49 AM 51.8°F11.0°C 48.6°F9.2°C 89% Calm Calm -- 29.97 in1014.9 mb 0.00 in0.0 mm 0.00 in0.0 mm 0.00 in0.0 mm
03:54 AM 51.9°F11.1°C 48.7°F9.3°C 89% Calm Calm -- 29.96 in1014.6 mb 0.00 in0.0 mm 0.00 in0.0 mm 0.00 in0.0 mm
03:59 AM 51.9°F11.1°C 48.7°F9.3°C 89% Calm Calm -- 29.96 in1014.6 mb 0.00 in0.0 mm 0.00 in0.0 mm 0.00 in0.0 mm
04:04 AM 51.9°F11.1°C 48.7°F9.3°C 89% Calm Calm -- 29.96 in1014.6 mb 0.00 in0.0 mm 0.00 in0.0 mm 0.00 in0.0 mm
04:09 AM 51.8°F11.0°C 48.6°F9.2°C 89% Calm Calm -- 29.96 in1014.6 mb 0.00 in0.0 mm 0.00 in0.0 mm 0.00 in0.0 mm
04:14 AM 51.8°F11.0°C 48.6°F9.2°C 89% Calm Calm -- 29.96 in1014.6 mb 0.00 in0.0 mm 0.00 in0.0 mm 0.00 in0.0 mm
04:19 AM 51.7°F10.9°C 48.5°F9.2°C 89% Calm Calm -- 29.96 in1014.6 mb 0.00 in0.0 mm 0.00 in0.0 mm 0.00 in0.0 mm
04:24 AM 51.6°F10.9°C 48.4°F9.1°C 89% Calm Calm -- 29.96 in1014.6 mb 0.00 in0.0 mm 0.00 in0.0 mm 0.00 in0.0 mm
04:29 AM 51.5°F10.8°C 48.3°F9.1°C 89% Calm Calm -- 29.96 in1014.6 mb 0.00 in0.0 mm 0.00 in0.0 mm 0.00 in0.0 mm
04:34 AM 51.4°F10.8°C 48.3°F9.1°C 89% Calm Calm -- 29.95 in1014.2 mb 0.00 in0.0 mm 0.00 in0.0 mm 0.00 in0.0 mm
04:39 AM 51.4°F10.8°C 48.3°F9.1°C 89% Calm Calm -- 29.96 in1014.6 mb 0.00 in0.0 mm 0.00 in0.0 mm 0.00 in0.0 mm
04:44 AM 51.3°F10.7°C 48.2°F9.0°C 89% Calm Calm -- 29.96 in1014.6 mb 0.00 in0.0 mm 0.00 in0.0 mm 0.00 in0.0 mm
04:49 AM 51.2°F10.7°C 48.1°F8.9°C 89% Calm Calm -- 29.95 in1014.2 mb 0.00 in0.0 mm 0.00 in0.0 mm 0.00 in0.0 mm
04:54 AM 51.1°F10.6°C 48.0°F8.9°C 89% Calm Calm -- 29.95 in1014.2 mb 0.00 in0.0 mm 0.00 in0.0 mm 0.00 in0.0 mm
04:59 AM 51.0°F10.6°C 47.9°F8.8°C 89% Calm Calm -- 29.95 in1014.2 mb 0.00 in0.0 mm 0.00 in0.0 mm 0.00 in0.0 mm
05:04 AM 51.0°F10.6°C 47.9°F8.8°C 89% Calm Calm -- 29.95 in1014.2 mb 0.00 in0.0 mm 0.00 in0.0 mm 0.00 in0.0 mm
05:09 AM 51.0°F10.6°C 48.2°F9.0°C 90% Calm Calm -- 29.95 in1014.2 mb 0.00 in0.0 mm 0.00 in0.0 mm 0.00 in0.0 mm
05:14 AM 51.0°F10.6°C 48.2°F9.0°C 90% Calm Calm -- 29.95 in1014.2 mb 0.00 in0.0 mm 0.00 in0.0 mm 0.00 in0.0 mm
05:19 AM 50.9°F10.5°C 48.1°F8.9°C 90% Calm Calm -- 29.95 in1014.2 mb 0.00 in0.0 mm 0.00 in0.0 mm 0.00 in0.0 mm
05:24 AM 50.9°F10.5°C 48.1°F8.9°C 90% Calm Calm -- 29.95 in1014.2 mb 0.00 in0.0 mm 0.00 in0.0 mm 0.00 in0.0 mm
05:29 AM 51.0°F10.6°C 48.2°F9.0°C 90% Calm Calm -- 29.96 in1014.6 mb 0.00 in0.0 mm 0.00 in0.0 mm 0.00 in0.0 mm
05:34 AM 51.0°F10.6°C 48.2°F9.0°C 90% Calm Calm -- 29.95 in1014.2 mb 0.00 in0.0 mm 0.00 in0.0 mm 0.00 in0.0 mm
05:39 AM 51.1°F10.6°C 48.3°F9.1°C 90% Calm Calm -- 29.94 in1013.9 mb 0.00 in0.0 mm 0.00 in0.0 mm 0.00 in0.0 mm
05:44 AM 51.0°F10.6°C 47.9°F8.8°C 89% Calm Calm -- 29.94 in1013.9 mb 0.00 in0.0 mm 0.00 in0.0 mm 0.00 in0.0 mm
05:49 AM 51.0°F10.6°C 48.2°F9.0°C 90% Calm Calm -- 29.94 in1013.9 mb 0.00 in0.0 mm 0.00 in0.0 mm 0.00 in0.0 mm
05:54 AM 50.9°F10.5°C 48.1°F8.9°C 90% Calm Calm -- 29.94 in1013.9 mb 0.00 in0.0 mm 0.00 in0.0 mm 0.00 in0.0 mm
05:59 AM 50.8°F10.4°C 48.0°F8.9°C 90% Calm Calm -- 29.95 in1014.2 mb 0.00 in0.0 mm 0.00 in0.0 mm 0.00 in0.0 mm
06:04 AM 50.8°F10.4°C 47.7°F8.7°C 89% Calm Calm -- 29.95 in1014.2 mb 0.00 in0.0 mm 0.00 in0.0 mm 0.00 in0.0 mm
06:09 AM 50.7°F10.4°C 47.6°F8.7°C 89% Calm Calm -- 29.95 in1014.2 mb 0.00 in0.0 mm 0.00 in0.0 mm 0.00 in0.0 mm
06:14 AM 50.7°F10.4°C 47.6°F8.7°C 89% Calm Calm -- 29.95 in1014.2 mb 0.00 in0.0 mm 0.00 in0.0 mm 0.00 in0.0 mm
06:19 AM 50.7°F10.4°C 47.6°F8.7°C 89% Calm Calm -- 29.95 in1014.2 mb 0.00 in0.0 mm 0.00 in0.0 mm 0.00 in0.0 mm
06:24 AM 50.7°F10.4°C 47.6°F8.7°C 89% Calm Calm -- 29.95 in1014.2 mb 0.00 in0.0 mm 0.00 in0.0 mm 0.00 in0.0 mm
06:29 AM 50.7°F10.4°C 47.9°F8.8°C 90% Calm Calm -- 29.95 in1014.2 mb 0.00 in0.0 mm 0.00 in0.0 mm 0.00 in0.0 mm
06:34 AM 50.7°F10.4°C 47.6°F8.7°C 89% Calm Calm -- 29.96 in1014.6 mb 0.00 in0.0 mm 0.00 in0.0 mm 0.00 in0.0 mm
06:39 AM 50.7°F10.4°C 47.6°F8.7°C 89% Calm Calm -- 29.96 in1014.6 mb 0.00 in0.0 mm 0.00 in0.0 mm 0.00 in0.0 mm
06:44 AM 50.8°F10.4°C 48.0°F8.9°C 90% Calm Calm -- 29.96 in1014.6 mb 0.00 in0.0 mm 0.00 in0.0 mm 0.00 in0.0 mm
06:49 AM 51.0°F10.6°C 48.2°F9.0°C 90% Calm Calm -- 29.96 in1014.6 mb 0.00 in0.0 mm 0.00 in0.0 mm 0.00 in0.0 mm
06:54 AM 51.1°F10.6°C 48.3°F9.1°C 90% Calm Calm -- 29.95 in1014.2 mb 0.00 in0.0 mm 0.00 in0.0 mm 0.00 in0.0 mm
06:59 AM 51.1°F10.6°C 48.3°F9.1°C 90% Calm Calm -- 29.96 in1014.6 mb 0.00 in0.0 mm 0.00 in0.0 mm 0.00 in0.0 mm
07:04 AM 51.1°F10.6°C 48.3°F9.1°C 90% Calm Calm -- 29.95 in1014.2 mb 0.00 in0.0 mm 0.00 in0.0 mm 0.00 in0.0 mm
07:09 AM 51.2°F10.7°C 48.4°F9.1°C 90% Calm Calm -- 29.96 in1014.6 mb 0.00 in0.0 mm 0.00 in0.0 mm 0.00 in0.0 mm
07:14 AM 51.3°F10.7°C 48.5°F9.2°C 90% Calm Calm -- 29.96 in1014.6 mb 0.00 in0.0 mm 0.00 in0.0 mm 0.00 in0.0 mm
07:19 AM 51.6°F10.9°C 48.8°F9.3°C 90% Calm Calm -- 29.96 in1014.6 mb 0.00 in0.0 mm 0.00 in0.0 mm 0.00 in0.0 mm
07:24 AM 52.0°F11.1°C 49.1°F9.5°C 90% Calm Calm -- 29.96 in1014.6 mb 0.00 in0.0 mm 0.00 in0.0 mm 0.00 in0.0 mm
07:29 AM 52.6°F11.4°C 49.7°F9.8°C 90% Calm Calm -- 29.96 in1014.6 mb 0.00 in0.0 mm 0.00 in0.0 mm 0.00 in0.0 mm
07:34 AM 52.9°F11.6°C 50.0°F10.0°C 90% Calm Calm -- 29.96 in1014.6 mb 0.00 in0.0 mm 0.00 in0.0 mm 0.00 in0.0 mm
07:39 AM 53.4°F11.9°C 50.5°F10.3°C 90% Calm Calm -- 29.96 in1014.6 mb 0.00 in0.0 mm 0.00 in0.0 mm 0.00 in0.0 mm
07:44 AM 54.7°F12.6°C 51.5°F10.8°C 89% Calm Calm -- 29.97 in1014.9 mb 0.00 in0.0 mm 0.00 in0.0 mm 0.00 in0.0 mm
07:49 AM 55.3°F12.9°C 52.4°F11.3°C 90% Calm Calm -- 29.97 in1014.9 mb 0.00 in0.0 mm 0.00 in0.0 mm 0.00 in0.0 mm
07:54 AM 55.4°F13.0°C 52.2°F11.2°C 89% Calm Calm -- 29.96 in1014.6 mb 0.00 in0.0 mm 0.00 in0.0 mm 0.00 in0.0 mm
07:59 AM 55.8°F13.2°C 52.9°F11.6°C 90% Calm Calm -- 29.97 in1014.9 mb 0.00 in0.0 mm 0.00 in0.0 mm 0.00 in0.0 mm
08:04 AM 56.4°F13.6°C 53.5°F11.9°C 90% Calm Calm -- 29.97 in1014.9 mb 0.00 in0.0 mm 0.00 in0.0 mm 0.00 in0.0 mm
08:09 AM 56.8°F13.8°C 53.6°F12.0°C 89% Calm Calm -- 29.96 in1014.6 mb 0.00 in0.0 mm 0.00 in0.0 mm 0.00 in0.0 mm
08:14 AM 57.6°F14.2°C 54.7°F12.6°C 90% Calm Calm -- 29.96 in1014.6 mb 0.00 in0.0 mm 0.00 in0.0 mm 0.00 in0.0 mm
08:19 AM 58.1°F14.5°C 55.2°F12.9°C 90% 1.0 mph SE1.6 kmh SE 3.0 mph4.8 kmh 29.95 in1014.2 mb 0.00 in0.0 mm 0.00 in0.0 mm 0.00 in0.0 mm
08:24 AM 58.8°F14.9°C 55.8°F13.2°C 90% Calm Calm -- 29.95 in1014.2 mb 0.00 in0.0 mm 0.00 in0.0 mm 0.00 in0.0 mm
08:29 AM 59.1°F15.1°C 55.8°F13.2°C 89% Calm Calm -- 29.95 in1014.2 mb 0.00 in0.0 mm 0.00 in0.0 mm 0.00 in0.0 mm
08:34 AM 60.1°F15.6°C 56.8°F13.8°C 89% Calm Calm -- 29.96 in1014.6 mb 0.00 in0.0 mm 0.00 in0.0 mm 0.00 in0.0 mm
08:39 AM 60.1°F15.6°C 56.5°F13.6°C 88% Calm Calm -- 29.96 in1014.6 mb 0.00 in0.0 mm 0.00 in0.0 mm 0.00 in0.0 mm
08:44 AM 60.6°F15.9°C 57.0°F13.9°C 88% Calm Calm -- 29.96 in1014.6 mb 0.00 in0.0 mm 0.00 in0.0 mm 0.00 in0.0 mm
08:49 AM 60.9°F16.1°C 57.3°F14.1°C 88% Calm Calm -- 29.97 in1014.9 mb 0.00 in0.0 mm 0.00 in0.0 mm 0.00 in0.0 mm
08:54 AM 61.3°F16.3°C 57.3°F14.1°C 87% Calm Calm -- 29.97 in1014.9 mb 0.00 in0.0 mm 0.00 in0.0 mm 0.00 in0.0 mm
08:59 AM 61.5°F16.4°C 57.2°F14.0°C 86% Calm Calm -- 29.96 in1014.6 mb 0.00 in0.0 mm 0.00 in0.0 mm 0.00 in0.0 mm
09:04 AM 61.7°F16.5°C 57.4°F14.1°C 86% Calm Calm 1.0 mph1.6 kmh 29.96 in1014.6 mb 0.00 in0.0 mm 0.00 in0.0 mm 0.00 in0.0 mm
09:09 AM 62.2°F16.8°C 57.9°F14.4°C 86% Calm Calm 4.0 mph6.4 kmh 29.95 in1014.2 mb 0.00 in0.0 mm 0.00 in0.0 mm 0.00 in0.0 mm
09:14 AM 62.6°F17.0°C 58.3°F14.6°C 86% 1.0 mph S1.6 kmh S 1.0 mph1.6 kmh 29.96 in1014.6 mb 0.00 in0.0 mm 0.00 in0.0 mm 0.00 in0.0 mm
09:19 AM 63.1°F17.3°C 58.8°F14.9°C 86% Calm Calm -- 29.97 in1014.9 mb 0.00 in0.0 mm 0.00 in0.0 mm 0.00 in0.0 mm
09:24 AM 62.9°F17.2°C 58.2°F14.6°C 85% Calm Calm -- 29.96 in1014.6 mb 0.00 in0.0 mm 0.00 in0.0 mm 0.00 in0.0 mm
09:29 AM 63.2°F17.3°C 58.9°F14.9°C 86% Calm Calm -- 29.96 in1014.6 mb 0.00 in0.0 mm 0.00 in0.0 mm 0.00 in0.0 mm
09:34 AM 63.2°F17.3°C 58.5°F14.7°C 85% Calm Calm -- 29.96 in1014.6 mb 0.00 in0.0 mm 0.00 in0.0 mm 0.00 in0.0 mm
09:39 AM 62.9°F17.2°C 57.9°F14.4°C 84% Calm Calm -- 29.96 in1014.6 mb 0.00 in0.0 mm 0.00 in0.0 mm 0.00 in0.0 mm
09:44 AM 62.9°F17.2°C 58.2°F14.6°C 85% Calm Calm -- 29.97 in1014.9 mb 0.00 in0.0 mm 0.00 in0.0 mm 0.00 in0.0 mm
09:49 AM 62.9°F17.2°C 58.2°F14.6°C 85% Calm Calm -- 29.98 in1015.2 mb 0.00 in0.0 mm 0.00 in0.0 mm 0.00 in0.0 mm
09:54 AM 63.0°F17.2°C 58.3°F14.6°C 85% Calm Calm -- 29.98 in1015.2 mb 0.00 in0.0 mm 0.00 in0.0 mm 0.00 in0.0 mm
09:59 AM 63.0°F17.2°C 58.3°F14.6°C 85% 6.0 mph W9.7 kmh W 16.0 mph25.7 kmh 30.05 in1017.6 mb 0.00 in0.0 mm 0.00 in0.0 mm 0.00 in0.0 mm
10:04 AM 62.5°F16.9°C 57.8°F14.3°C 85% 9.0 mph NW14.5 kmh NW 16.0 mph25.7 kmh 30.05 in1017.6 mb 0.36 in9.1 mm 0.39 in9.9 mm 0.03 in0.8 mm
10:09 AM 62.1°F16.7°C 57.8°F14.3°C 86% 9.0 mph WNW14.5 kmh WNW 16.0 mph25.7 kmh 30.05 in1017.6 mb 2.07 in52.6 mm 20.52 in521.2 mm 0.16 in4.1 mm
10:14 AM 61.6°F16.4°C 57.3°F14.1°C 86% Calm Calm -- 30.03 in1016.9 mb 0.89 in22.6 mm 0.00 in0.0 mm 0.34 in8.6 mm
10:19 AM 61.3°F16.3°C 57.3°F14.1°C 87% Calm Calm -- 30.03 in1016.9 mb 0.21 in5.3 mm 0.00 in0.0 mm 0.36 in9.1 mm
10:24 AM 60.9°F16.1°C 56.9°F13.8°C 87% Calm Calm -- 30.02 in1016.6 mb 0.19 in4.8 mm 0.00 in0.0 mm 0.38 in9.7 mm
10:29 AM 60.6°F15.9°C 56.6°F13.7°C 87% Calm Calm -- 30.02 in1016.6 mb 0.12 in3.0 mm 0.00 in0.0 mm 0.39 in9.9 mm
10:34 AM 60.3°F15.7°C 56.4°F13.6°C 87% Calm Calm -- 30.02 in1016.6 mb 0.08 in2.0 mm 0.00 in0.0 mm 0.39 in9.9 mm
10:39 AM 60.0°F15.6°C 56.1°F13.4°C 87% Calm Calm -- 30.02 in1016.6 mb 0.06 in1.5 mm 0.00 in0.0 mm 0.40 in10.2 mm
10:44 AM 59.8°F15.4°C 56.2°F13.4°C 88% Calm Calm -- 30.02 in1016.6 mb 0.11 in2.8 mm 0.60 in15.2 mm 0.41 in10.4 mm
10:49 AM 59.5°F15.3°C 55.9°F13.3°C 88% Calm Calm -- 30.02 in1016.6 mb 0.28 in7.1 mm 2.04 in51.8 mm 0.43 in10.9 mm
10:54 AM 59.3°F15.2°C 55.7°F13.2°C 88% Calm Calm -- 30.03 in1016.9 mb 0.14 in3.6 mm 0.00 in0.0 mm 0.44 in11.2 mm
10:59 AM 59.1°F15.1°C 55.5°F13.1°C 88% Calm Calm -- 30.03 in1016.9 mb 0.20 in5.1 mm 0.72 in18.3 mm 0.46 in11.7 mm
11:04 AM 59.0°F15.0°C 55.4°F13.0°C 88% Calm Calm -- 30.02 in1016.6 mb 0.31 in7.9 mm 0.12 in3.0 mm 0.49 in12.4 mm
11:09 AM 59.0°F15.0°C 55.4°F13.0°C 88% 4.0 mph ENE6.4 kmh ENE 7.0 mph11.3 kmh 29.97 in1014.9 mb 0.24 in6.1 mm 0.00 in0.0 mm 0.50 in12.7 mm
11:14 AM 59.0°F15.0°C 55.4°F13.0°C 88% 4.0 mph ENE6.4 kmh ENE 7.0 mph11.3 kmh 29.97 in1014.9 mb 0.11 in2.8 mm 0.00 in0.0 mm 0.51 in13.0 mm
11:19 AM 59.0°F15.0°C 55.7°F13.2°C 89% 8.0 mph ENE12.9 kmh ENE 11.0 mph17.7 kmh 29.94 in1013.9 mb 0.06 in1.5 mm 0.00 in0.0 mm 0.51 in13.0 mm
11:24 AM 59.1°F15.1°C 55.8°F13.2°C 89% 5.0 mph SSW8.0 kmh SSW 11.0 mph17.7 kmh 29.98 in1015.2 mb 0.04 in1.0 mm 0.00 in0.0 mm 0.51 in13.0 mm
11:29 AM 59.3°F15.2°C 56.0°F13.3°C 89% 6.0 mph S9.7 kmh S 13.0 mph20.9 kmh 30.00 in1015.9 mb 0.04 in1.0 mm 0.00 in0.0 mm 0.52 in13.2 mm
11:34 AM 59.5°F15.3°C 56.2°F13.4°C 89% Calm Calm -- 29.98 in1015.2 mb 0.04 in1.0 mm 0.00 in0.0 mm 0.52 in13.2 mm
11:39 AM 59.7°F15.4°C 56.4°F13.6°C 89% Calm Calm -- 29.98 in1015.2 mb 0.04 in1.0 mm 0.00 in0.0 mm 0.52 in13.2 mm
11:44 AM 60.0°F15.6°C 56.7°F13.7°C 89% Calm Calm -- 29.99 in1015.6 mb 0.00 in0.0 mm 0.00 in0.0 mm 0.52 in13.2 mm
11:49 AM 60.0°F15.6°C 57.0°F13.9°C 90% Calm Calm 4.0 mph6.4 kmh 29.99 in1015.6 mb 0.00 in0.0 mm 0.00 in0.0 mm 0.52 in13.2 mm
11:54 AM 60.0°F15.6°C 57.0°F13.9°C 90% Calm Calm -- 30.01 in1016.3 mb 0.00 in0.0 mm 0.00 in0.0 mm 0.52 in13.2 mm
11:59 AM 60.4°F15.8°C 57.4°F14.1°C 90% Calm Calm -- 29.99 in1015.6 mb 0.31 in7.9 mm 3.72 in94.5 mm 0.53 in13.5 mm
12:04 PM 60.8°F16.0°C 57.8°F14.3°C 90% 3.0 mph S4.8 kmh S 5.0 mph8.0 kmh 29.99 in1015.6 mb 0.10 in2.5 mm 0.00 in0.0 mm 0.54 in13.7 mm
12:09 PM 61.1°F16.2°C 58.1°F14.5°C 90% Calm Calm 6.0 mph9.7 kmh 30.00 in1015.9 mb 0.05 in1.3 mm 0.00 in0.0 mm 0.54 in13.7 mm
12:14 PM 61.5°F16.4°C 58.2°F14.6°C 89% Calm Calm 4.0 mph6.4 kmh 30.01 in1016.3 mb 0.04 in1.0 mm 0.00 in0.0 mm 0.54 in13.7 mm
12:19 PM 62.1°F16.7°C 58.8°F14.9°C 89% Calm Calm -- 30.02 in1016.6 mb 0.00 in0.0 mm 0.00 in0.0 mm 0.54 in13.7 mm
12:24 PM 62.1°F16.7°C 58.8°F14.9°C 89% Calm Calm -- 30.03 in1016.9 mb 0.00 in0.0 mm 0.00 in0.0 mm 0.54 in13.7 mm
12:29 PM 62.2°F16.8°C 58.9°F14.9°C 89% 3.0 mph WSW4.8 kmh WSW 6.0 mph9.7 kmh 30.05 in1017.6 mb 0.00 in0.0 mm 0.00 in0.0 mm 0.54 in13.7 mm
12:34 PM 62.1°F16.7°C 59.1°F15.1°C 90% 6.0 mph WSW9.7 kmh WSW 9.0 mph14.5 kmh 30.06 in1017.9 mb 0.00 in0.0 mm 0.00 in0.0 mm 0.54 in13.7 mm
12:39 PM 62.0°F16.7°C 59.0°F15.0°C 90% 4.0 mph WNW6.4 kmh WNW 9.0 mph14.5 kmh 30.08 in1018.6 mb 0.00 in0.0 mm 0.00 in0.0 mm 0.54 in13.7 mm
12:44 PM 61.9°F16.6°C 58.9°F14.9°C 90% 6.0 mph WNW9.7 kmh WNW 9.0 mph14.5 kmh 30.08 in1018.6 mb 0.13 in3.3 mm 1.56 in39.6 mm 0.56 in14.2 mm
12:49 PM 61.1°F16.2°C 57.8°F14.3°C 89% 5.0 mph WNW8.0 kmh WNW 10.0 mph16.1 kmh 30.08 in1018.6 mb 0.16 in4.1 mm 0.36 in9.1 mm 0.57 in14.5 mm
12:54 PM 60.5°F15.8°C 57.2°F14.0°C 89% 5.0 mph NW8.0 kmh NW 10.0 mph16.1 kmh 30.07 in1018.3 mb 0.10 in2.5 mm 0.00 in0.0 mm 0.58 in14.7 mm
12:59 PM 59.4°F15.2°C 56.1°F13.4°C 89% Calm Calm 10.0 mph16.1 kmh 30.06 in1017.9 mb 0.11 in2.8 mm 0.12 in3.0 mm 0.59 in15.0 mm
01:04 PM 58.9°F14.9°C 55.9°F13.3°C 90% Calm Calm -- 30.05 in1017.6 mb 0.08 in2.0 mm 0.00 in0.0 mm 0.59 in15.0 mm
01:09 PM 58.6°F14.8°C 55.6°F13.1°C 90% Calm Calm -- 30.05 in1017.6 mb 0.05 in1.3 mm 0.00 in0.0 mm 0.59 in15.0 mm
01:19 PM 58.6°F14.8°C 55.6°F13.1°C 90% Calm Calm -- 30.03 in1016.9 mb 0.04 in1.0 mm 0.00 in0.0 mm 0.60 in15.2 mm
01:24 PM 58.8°F14.9°C 55.8°F13.2°C 90% Calm Calm -- 30.01 in1016.3 mb 0.04 in1.0 mm 0.00 in0.0 mm 0.60 in15.2 mm
01:39 PM 60.9°F16.1°C 57.6°F14.2°C 89% 7.0 mph SE11.3 kmh SE 8.0 mph12.9 kmh 29.95 in1014.2 mb 0.00 in0.0 mm 0.00 in0.0 mm 0.60 in15.2 mm
02:19 PM 63.9°F17.7°C 60.5°F15.8°C 89% 4.0 mph S6.4 kmh S 17.0 mph27.4 kmh 29.89 in1012.2 mb 0.00 in0.0 mm 0.00 in0.0 mm 0.60 in15.2 mm
02:24 PM 64.5°F18.1°C 61.1°F16.2°C 89% Calm Calm 7.0 mph11.3 kmh 29.90 in1012.5 mb 0.00 in0.0 mm 0.00 in0.0 mm 0.60 in15.2 mm
02:29 PM 65.4°F18.6°C 62.0°F16.7°C 89% Calm Calm -- 29.91 in1012.9 mb 0.00 in0.0 mm 0.00 in0.0 mm 0.60 in15.2 mm
02:34 PM 66.4°F19.1°C 63.0°F17.2°C 89% 6.0 mph S9.7 kmh S 7.0 mph11.3 kmh 29.91 in1012.9 mb 0.00 in0.0 mm 0.00 in0.0 mm 0.60 in15.2 mm
02:39 PM 66.9°F19.4°C 63.8°F17.7°C 90% Calm Calm -- 29.91 in1012.9 mb 0.00 in0.0 mm 0.00 in0.0 mm 0.60 in15.2 mm
02:44 PM 67.1°F19.5°C 63.7°F17.6°C 89% Calm Calm -- 29.92 in1013.2 mb 0.00 in0.0 mm 0.00 in0.0 mm 0.60 in15.2 mm
02:54 PM 68.3°F20.2°C 64.5°F18.1°C 88% Calm Calm -- 29.91 in1012.9 mb 0.00 in0.0 mm 0.00 in0.0 mm 0.60 in15.2 mm
03:09 PM 69.3°F20.7°C 64.8°F18.2°C 86% 2.0 mph SSW3.2 kmh SSW 6.0 mph9.7 kmh 29.91 in1012.9 mb 0.00 in0.0 mm 0.00 in0.0 mm 0.60 in15.2 mm
03:14 PM 69.8°F21.0°C 65.3°F18.5°C 86% Calm Calm -- 29.90 in1012.5 mb 0.00 in0.0 mm 0.00 in0.0 mm 0.60 in15.2 mm
03:19 PM 70.3°F21.3°C 66.2°F19.0°C 87% Calm Calm 6.0 mph9.7 kmh 29.90 in1012.5 mb 0.00 in0.0 mm 0.00 in0.0 mm 0.60 in15.2 mm
03:29 PM 70.6°F21.4°C 65.8°F18.8°C 85% Calm Calm 1.0 mph1.6 kmh 29.90 in1012.5 mb 0.00 in0.0 mm 0.00 in0.0 mm 0.60 in15.2 mm
03:34 PM 71.0°F21.7°C 65.8°F18.8°C 84% Calm Calm 7.0 mph11.3 kmh 29.90 in1012.5 mb 0.00 in0.0 mm 0.00 in0.0 mm 0.60 in15.2 mm
03:44 PM 72.0°F22.2°C 66.4°F19.1°C 83% Calm Calm 4.0 mph6.4 kmh 29.88 in1011.9 mb 0.00 in0.0 mm 0.00 in0.0 mm 0.60 in15.2 mm
03:49 PM 72.1°F22.3°C 66.2°F19.0°C 82% Calm Calm 7.0 mph11.3 kmh 29.87 in1011.5 mb 0.00 in0.0 mm 0.00 in0.0 mm 0.60 in15.2 mm
03:54 PM 72.7°F22.6°C 67.1°F19.5°C 83% Calm Calm 4.0 mph6.4 kmh 29.87 in1011.5 mb 0.00 in0.0 mm 0.00 in0.0 mm 0.60 in15.2 mm
03:59 PM 72.9°F22.7°C 66.6°F19.2°C 81% Calm Calm 5.0 mph8.0 kmh 29.87 in1011.5 mb 0.00 in0.0 mm 0.00 in0.0 mm 0.60 in15.2 mm
04:04 PM 72.4°F22.4°C 65.3°F18.5°C 79% 1.0 mph SE1.6 kmh SE 7.0 mph11.3 kmh 29.86 in1011.2 mb 0.00 in0.0 mm 0.00 in0.0 mm 0.60 in15.2 mm
04:09 PM 73.1°F22.8°C 66.4°F19.1°C 80% Calm Calm 7.0 mph11.3 kmh 29.85 in1010.8 mb 0.00 in0.0 mm 0.00 in0.0 mm 0.60 in15.2 mm
04:14 PM 73.5°F23.1°C 64.5°F18.1°C 74% Calm Calm 3.0 mph4.8 kmh 29.84 in1010.5 mb 0.00 in0.0 mm 0.00 in0.0 mm 0.60 in15.2 mm
04:24 PM 73.5°F23.1°C 64.5°F18.1°C 74% 2.0 mph SE3.2 kmh SE 5.0 mph8.0 kmh 29.84 in1010.5 mb 0.00 in0.0 mm 0.00 in0.0 mm 0.60 in15.2 mm
05:54 PM 75.6°F24.2°C 64.0°F17.8°C 68% 3.0 mph SW4.8 kmh SW 7.0 mph11.3 kmh 29.85 in1010.8 mb 0.00 in0.0 mm 0.00 in0.0 mm 0.60 in15.2 mm
05:59 PM 75.7°F24.3°C 64.9°F18.3°C 70% Calm Calm 7.0 mph11.3 kmh 29.85 in1010.8 mb 0.00 in0.0 mm 0.00 in0.0 mm 0.60 in15.2 mm
06:04 PM 75.8°F24.3°C 65.0°F18.3°C 70% Calm Calm 12.0 mph19.3 kmh 29.85 in1010.8 mb 0.00 in0.0 mm 0.00 in0.0 mm 0.60 in15.2 mm
06:09 PM 75.8°F24.3°C 64.2°F17.9°C 68% 6.0 mph W9.7 kmh W 7.0 mph11.3 kmh 29.85 in1010.8 mb 0.00 in0.0 mm 0.00 in0.0 mm 0.60 in15.2 mm
06:14 PM 75.9°F24.4°C 63.8°F17.7°C 67% Calm Calm -- 29.85 in1010.8 mb 0.00 in0.0 mm 0.00 in0.0 mm 0.60 in15.2 mm
06:19 PM 76.0°F24.4°C 63.5°F17.5°C 66% Calm Calm 6.0 mph9.7 kmh 29.85 in1010.8 mb 0.00 in0.0 mm 0.00 in0.0 mm 0.60 in15.2 mm
06:24 PM 76.1°F24.5°C 63.6°F17.6°C 66% Calm Calm 6.0 mph9.7 kmh 29.86 in1011.2 mb 0.00 in0.0 mm 0.00 in0.0 mm 0.60 in15.2 mm
06:29 PM 76.3°F24.6°C 64.2°F17.9°C 67% Calm Calm 7.0 mph11.3 kmh 29.85 in1010.8 mb 0.00 in0.0 mm 0.00 in0.0 mm 0.60 in15.2 mm
06:34 PM 76.2°F24.6°C 62.8°F17.1°C 64% Calm Calm -- 29.86 in1011.2 mb 0.00 in0.0 mm 0.00 in0.0 mm 0.60 in15.2 mm
06:39 PM 76.1°F24.5°C 63.1°F17.3°C 65% 1.0 mph WSW1.6 kmh WSW 5.0 mph8.0 kmh 29.85 in1010.8 mb 0.00 in0.0 mm 0.00 in0.0 mm 0.60 in15.2 mm
06:44 PM 76.0°F24.4°C 62.6°F17.0°C 64% Calm Calm 7.0 mph11.3 kmh 29.86 in1011.2 mb 0.00 in0.0 mm 0.00 in0.0 mm 0.60 in15.2 mm
06:49 PM 75.8°F24.3°C 62.4°F16.9°C 64% 1.0 mph WSW1.6 kmh WSW 4.0 mph6.4 kmh 29.86 in1011.2 mb 0.00 in0.0 mm 0.00 in0.0 mm 0.60 in15.2 mm
06:54 PM 75.6°F24.2°C 63.1°F17.3°C 66% Calm Calm -- 29.86 in1011.2 mb 0.00 in0.0 mm 0.00 in0.0 mm 0.60 in15.2 mm
06:59 PM 75.4°F24.1°C 63.4°F17.4°C 67% Calm Calm -- 29.86 in1011.2 mb 0.00 in0.0 mm 0.00 in0.0 mm 0.60 in15.2 mm
07:04 PM 75.4°F24.1°C 63.4°F17.4°C 67% Calm Calm -- 29.86 in1011.2 mb 0.00 in0.0 mm 0.00 in0.0 mm 0.60 in15.2 mm
07:09 PM 75.2°F24.0°C 63.2°F17.3°C 67% Calm Calm -- 29.86 in1011.2 mb 0.00 in0.0 mm 0.00 in0.0 mm 0.60 in15.2 mm
07:14 PM 75.2°F24.0°C 64.5°F18.1°C 70% Calm Calm -- 29.86 in1011.2 mb 0.00 in0.0 mm 0.00 in0.0 mm 0.60 in15.2 mm
07:19 PM 75.0°F23.9°C 63.0°F17.2°C 67% Calm Calm 4.0 mph6.4 kmh 29.86 in1011.2 mb 0.00 in0.0 mm 0.00 in0.0 mm 0.60 in15.2 mm
07:24 PM 74.6°F23.7°C 63.0°F17.2°C 68% Calm Calm -- 29.86 in1011.2 mb 0.00 in0.0 mm 0.00 in0.0 mm 0.60 in15.2 mm
07:29 PM 74.2°F23.4°C 62.2°F16.8°C 67% Calm Calm -- 29.86 in1011.2 mb 0.00 in0.0 mm 0.00 in0.0 mm 0.60 in15.2 mm
07:34 PM 73.8°F23.2°C 62.3°F16.8°C 68% Calm Calm -- 29.86 in1011.2 mb 0.00 in0.0 mm 0.00 in0.0 mm 0.60 in15.2 mm
07:39 PM 73.5°F23.1°C 62.4°F16.9°C 69% Calm Calm 7.0 mph11.3 kmh 29.86 in1011.2 mb 0.00 in0.0 mm 0.00 in0.0 mm 0.60 in15.2 mm
07:44 PM 73.1°F22.8°C 62.0°F16.7°C 69% Calm Calm -- 29.86 in1011.2 mb 0.00 in0.0 mm 0.00 in0.0 mm 0.60 in15.2 mm
07:49 PM 73.0°F22.8°C 62.4°F16.9°C 70% Calm Calm -- 29.86 in1011.2 mb 0.00 in0.0 mm 0.00 in0.0 mm 0.60 in15.2 mm
07:54 PM 72.7°F22.6°C 62.5°F16.9°C 71% Calm Calm -- 29.85 in1010.8 mb 0.00 in0.0 mm 0.00 in0.0 mm 0.60 in15.2 mm
07:59 PM 72.3°F22.4°C 62.5°F16.9°C 72% Calm Calm -- 29.85 in1010.8 mb 0.00 in0.0 mm 0.00 in0.0 mm 0.60 in15.2 mm
08:04 PM 71.8°F22.1°C 62.5°F16.9°C 73% Calm Calm -- 29.85 in1010.8 mb 0.00 in0.0 mm 0.00 in0.0 mm 0.60 in15.2 mm
08:09 PM 71.2°F21.8°C 62.3°F16.8°C 74% Calm Calm -- 29.85 in1010.8 mb 0.00 in0.0 mm 0.00 in0.0 mm 0.60 in15.2 mm
08:14 PM 70.8°F21.6°C 62.3°F16.8°C 75% Calm Calm -- 29.85 in1010.8 mb 0.00 in0.0 mm 0.00 in0.0 mm 0.60 in15.2 mm
08:19 PM 70.6°F21.4°C 62.5°F16.9°C 76% Calm Calm -- 29.85 in1010.8 mb 0.00 in0.0 mm 0.00 in0.0 mm 0.60 in15.2 mm
08:24 PM 70.8°F21.6°C 62.7°F17.1°C 76% Calm Calm -- 29.85 in1010.8 mb 0.00 in0.0 mm 0.00 in0.0 mm 0.60 in15.2 mm
08:29 PM 70.8°F21.6°C 62.7°F17.1°C 76% Calm Calm -- 29.85 in1010.8 mb 0.00 in0.0 mm 0.00 in0.0 mm 0.60 in15.2 mm
08:34 PM 70.7°F21.5°C 62.6°F17.0°C 76% Calm Calm -- 29.84 in1010.5 mb 0.00 in0.0 mm 0.00 in0.0 mm 0.60 in15.2 mm
08:39 PM 70.5°F21.4°C 62.4°F16.9°C 76% Calm Calm -- 29.84 in1010.5 mb 0.00 in0.0 mm 0.00 in0.0 mm 0.60 in15.2 mm
08:44 PM 70.1°F21.2°C 62.4°F16.9°C 77% Calm Calm -- 29.84 in1010.5 mb 0.00 in0.0 mm 0.00 in0.0 mm 0.60 in15.2 mm
08:49 PM 69.7°F20.9°C 62.0°F16.7°C 77% Calm Calm -- 29.85 in1010.8 mb 0.00 in0.0 mm 0.00 in0.0 mm 0.60 in15.2 mm
08:54 PM 69.4°F20.8°C 62.1°F16.7°C 78% Calm Calm -- 29.85 in1010.8 mb 0.00 in0.0 mm 0.00 in0.0 mm 0.60 in15.2 mm
08:59 PM 69.1°F20.6°C 61.8°F16.6°C 78% Calm Calm -- 29.85 in1010.8 mb 0.00 in0.0 mm 0.00 in0.0 mm 0.60 in15.2 mm
09:04 PM 68.8°F20.4°C 61.5°F16.4°C 78% Calm Calm -- 29.85 in1010.8 mb 0.00 in0.0 mm 0.00 in0.0 mm 0.60 in15.2 mm
09:09 PM 68.4°F20.2°C 61.5°F16.4°C 79% Calm Calm -- 29.85 in1010.8 mb 0.00 in0.0 mm 0.00 in0.0 mm 0.60 in15.2 mm
09:14 PM 68.0°F20.0°C 61.1°F16.2°C 79% Calm Calm -- 29.86 in1011.2 mb 0.00 in0.0 mm 0.00 in0.0 mm 0.60 in15.2 mm
09:19 PM 67.6°F19.8°C 60.7°F15.9°C 79% Calm Calm -- 29.86 in1011.2 mb 0.00 in0.0 mm 0.00 in0.0 mm 0.60 in15.2 mm
09:24 PM 67.2°F19.6°C 60.3°F15.7°C 79% Calm Calm -- 29.86 in1011.2 mb 0.00 in0.0 mm 0.00 in0.0 mm 0.60 in15.2 mm
09:29 PM 66.8°F19.3°C 60.3°F15.7°C 80% Calm Calm -- 29.87 in1011.5 mb 0.00 in0.0 mm 0.00 in0.0 mm 0.60 in15.2 mm
09:34 PM 66.3°F19.1°C 59.8°F15.4°C 80% Calm Calm -- 29.87 in1011.5 mb 0.00 in0.0 mm 0.00 in0.0 mm 0.60 in15.2 mm
09:39 PM 65.9°F18.8°C 59.8°F15.4°C 81% Calm Calm -- 29.87 in1011.5 mb 0.00 in0.0 mm 0.00 in0.0 mm 0.60 in15.2 mm
09:44 PM 65.6°F18.7°C 60.2°F15.7°C 83% Calm Calm -- 29.88 in1011.9 mb 0.00 in0.0 mm 0.00 in0.0 mm 0.60 in15.2 mm
09:49 PM 65.4°F18.6°C 60.0°F15.6°C 83% Calm Calm -- 29.88 in1011.9 mb 0.00 in0.0 mm 0.00 in0.0 mm 0.60 in15.2 mm
09:54 PM 65.2°F18.4°C 60.1°F15.6°C 84% Calm Calm -- 29.88 in1011.9 mb 0.00 in0.0 mm 0.00 in0.0 mm 0.60 in15.2 mm
09:59 PM 65.0°F18.3°C 59.9°F15.5°C 84% Calm Calm -- 29.88 in1011.9 mb 0.00 in0.0 mm 0.00 in0.0 mm 0.60 in15.2 mm
10:04 PM 64.9°F18.3°C 59.9°F15.5°C 84% Calm Calm -- 29.88 in1011.9 mb 0.00 in0.0 mm 0.00 in0.0 mm 0.60 in15.2 mm
10:09 PM 64.8°F18.2°C 60.1°F15.6°C 85% Calm Calm -- 29.88 in1011.9 mb 0.00 in0.0 mm 0.00 in0.0 mm 0.60 in15.2 mm
10:14 PM 64.8°F18.2°C 60.4°F15.8°C 86% Calm Calm -- 29.88 in1011.9 mb 0.00 in0.0 mm 0.00 in0.0 mm 0.60 in15.2 mm
10:19 PM 64.8°F18.2°C 60.4°F15.8°C 86% Calm Calm -- 29.88 in1011.9 mb 0.00 in0.0 mm 0.00 in0.0 mm 0.60 in15.2 mm
10:24 PM 64.9°F18.3°C 60.5°F15.8°C 86% Calm Calm -- 29.88 in1011.9 mb 0.00 in0.0 mm 0.00 in0.0 mm 0.60 in15.2 mm
10:29 PM 64.9°F18.3°C 60.5°F15.8°C 86% Calm Calm -- 29.88 in1011.9 mb 0.00 in0.0 mm 0.00 in0.0 mm 0.60 in15.2 mm
10:34 PM 65.0°F18.3°C 61.0°F16.1°C 87% Calm Calm -- 29.88 in1011.9 mb 0.00 in0.0 mm 0.00 in0.0 mm 0.60 in15.2 mm
10:39 PM 65.0°F18.3°C 61.0°F16.1°C 87% Calm Calm -- 29.89 in1012.2 mb 0.00 in0.0 mm 0.00 in0.0 mm 0.60 in15.2 mm
10:44 PM 65.0°F18.3°C 61.0°F16.1°C 87% Calm Calm -- 29.88 in1011.9 mb 0.00 in0.0 mm 0.00 in0.0 mm 0.60 in15.2 mm
10:49 PM 65.1°F18.4°C 61.1°F16.2°C 87% Calm Calm -- 29.88 in1011.9 mb 0.00 in0.0 mm 0.00 in0.0 mm 0.60 in15.2 mm
10:54 PM 65.2°F18.4°C 61.2°F16.2°C 87% Calm Calm -- 29.88 in1011.9 mb 0.00 in0.0 mm 0.00 in0.0 mm 0.60 in15.2 mm
10:59 PM 65.4°F18.6°C 61.4°F16.3°C 87% Calm Calm -- 29.88 in1011.9 mb 0.00 in0.0 mm 0.00 in0.0 mm 0.60 in15.2 mm
11:04 PM 65.3°F18.5°C 61.3°F16.3°C 87% Calm Calm -- 29.88 in1011.9 mb 0.00 in0.0 mm 0.00 in0.0 mm 0.60 in15.2 mm
11:09 PM 65.3°F18.5°C 61.3°F16.3°C 87% Calm Calm -- 29.88 in1011.9 mb 0.00 in0.0 mm 0.00 in0.0 mm 0.60 in15.2 mm
11:14 PM 65.3°F18.5°C 61.3°F16.3°C 87% Calm Calm -- 29.87 in1011.5 mb 0.00 in0.0 mm 0.00 in0.0 mm 0.60 in15.2 mm
11:19 PM 65.3°F18.5°C 61.6°F16.4°C 88% Calm Calm -- 29.88 in1011.9 mb 0.00 in0.0 mm 0.00 in0.0 mm 0.60 in15.2 mm
11:24 PM 65.3°F18.5°C 61.6°F16.4°C 88% Calm Calm -- 29.88 in1011.9 mb 0.00 in0.0 mm 0.00 in0.0 mm 0.60 in15.2 mm
11:29 PM 65.3°F18.5°C 61.6°F16.4°C 88% Calm Calm -- 29.87 in1011.5 mb 0.00 in0.0 mm 0.00 in0.0 mm 0.60 in15.2 mm
11:34 PM 65.2°F18.4°C 61.5°F16.4°C 88% Calm Calm -- 29.87 in1011.5 mb 0.00 in0.0 mm 0.00 in0.0 mm 0.60 in15.2 mm
11:39 PM 65.1°F18.4°C 61.4°F16.3°C 88% Calm Calm -- 29.86 in1011.2 mb 0.00 in0.0 mm 0.00 in0.0 mm 0.60 in15.2 mm
11:44 PM 65.1°F18.4°C 61.4°F16.3°C 88% Calm Calm -- 29.85 in1010.8 mb 0.00 in0.0 mm 0.00 in0.0 mm 0.60 in15.2 mm
11:49 PM 65.0°F18.3°C 61.3°F16.3°C 88% Calm Calm -- 29.86 in1011.2 mb 0.00 in0.0 mm 0.00 in0.0 mm 0.60 in15.2 mm
11:54 PM 65.0°F18.3°C 61.3°F16.3°C 88% Calm Calm 4.0 mph6.4 kmh 29.85 in1010.8 mb 0.00 in0.0 mm 0.00 in0.0 mm 0.60 in15.2 mm
11:59 PM 65.0°F18.3°C 61.3°F16.3°C 88% Calm Calm -- 29.85 in1010.8 mb 0.00 in0.0 mm 0.00 in0.0 mm 0.60 in15.2 mm